createdAt,value
2023-03-06T00:00:29.769Z,5.43
2023-03-06T00:02:57.257Z,5.39
2023-03-06T00:05:24.030Z,5.34
2023-03-06T00:07:50.664Z,5.30
2023-03-06T00:10:20.810Z,5.24
2023-03-06T00:12:47.594Z,5.19
2023-03-06T00:15:14.694Z,5.13
2023-03-06T00:17:41.525Z,5.07
2023-03-06T00:20:10.804Z,5.02
2023-03-06T00:22:37.645Z,4.97
2023-03-06T00:25:05.493Z,4.93
2023-03-06T00:27:32.696Z,4.90
2023-03-06T00:30:00.902Z,4.86
2023-03-06T00:32:28.326Z,4.83
2023-03-06T00:34:55.703Z,4.80
2023-03-06T00:37:24.363Z,4.78
2023-03-06T00:39:51.416Z,4.78
2023-03-06T00:42:19.263Z,4.76
2023-03-06T00:44:46.760Z,4.77
2023-03-06T00:47:17.093Z,4.78
2023-03-06T00:49:46.909Z,4.78
2023-03-06T00:52:13.713Z,4.82
2023-03-06T00:54:40.717Z,4.86
2023-03-06T00:57:07.883Z,4.89
2023-03-06T00:59:34.856Z,4.94
2023-03-06T01:02:01.488Z,4.98
2023-03-06T01:04:28.007Z,5.00
2023-03-06T01:06:54.476Z,5.02
2023-03-06T01:09:21.155Z,5.04
2023-03-06T01:11:47.589Z,5.05
2023-03-06T01:14:16.689Z,5.07
2023-03-06T01:16:43.108Z,5.08
2023-03-06T01:19:09.592Z,5.08
2023-03-06T01:21:35.952Z,5.11
2023-03-06T01:24:02.436Z,5.11
2023-03-06T01:26:28.897Z,5.11
2023-03-06T01:28:57.427Z,5.13
2023-03-06T01:31:25.082Z,5.15
2023-03-06T01:33:51.912Z,5.16
2023-03-06T01:36:18.708Z,5.16
2023-03-06T01:38:45.115Z,5.14
2023-03-06T01:41:15.541Z,5.11
2023-03-06T01:43:46.075Z,5.07
2023-03-06T01:46:44.915Z,5.03
2023-03-06T01:49:14.785Z,5.00
2023-03-06T01:51:48.596Z,4.97
2023-03-06T01:54:22.626Z,4.93
2023-03-06T01:56:52.885Z,4.91
2023-03-06T01:59:21.681Z,4.87
2023-03-06T02:01:48.339Z,4.83
2023-03-06T02:04:16.027Z,4.78
2023-03-06T02:06:45.867Z,4.73
2023-03-06T02:09:13.387Z,4.72
2023-03-06T02:11:43.919Z,4.67
2023-03-06T02:14:16.154Z,4.61
2023-03-06T02:16:43.439Z,4.61
2023-03-06T02:19:49.165Z,4.56
2023-03-06T02:22:15.541Z,4.58
2023-03-06T02:25:07.892Z,4.53
2023-03-06T02:27:34.729Z,4.53
2023-03-06T02:30:06.383Z,4.49
2023-03-06T02:32:32.800Z,4.48
2023-03-06T02:34:59.266Z,4.46
2023-03-06T02:37:28.369Z,4.44
2023-03-06T02:40:02.817Z,4.40
2023-03-06T02:42:29.600Z,4.41
2023-03-06T02:44:58.940Z,4.38
2023-03-06T02:47:25.413Z,4.40
2023-03-06T02:49:51.880Z,4.41
2023-03-06T02:52:18.252Z,4.42
2023-03-06T02:54:44.808Z,4.44
2023-03-06T02:57:11.249Z,4.49
2023-03-06T02:59:37.665Z,4.50
2023-03-06T03:02:04.129Z,4.55
2023-03-06T03:04:30.482Z,4.58
2023-03-06T03:06:56.904Z,4.59
2023-03-06T03:09:23.262Z,4.60
2023-03-06T03:11:49.649Z,4.58
2023-03-06T03:14:16.655Z,4.59
2023-03-06T03:16:43.037Z,4.55
2023-03-06T03:19:09.430Z,4.55
2023-03-06T03:21:35.869Z,4.54
2023-03-06T03:24:02.385Z,4.55
2023-03-06T03:26:28.882Z,4.54
2023-03-06T03:28:55.275Z,4.53
2023-03-06T03:31:21.773Z,4.54
2023-03-06T03:33:48.203Z,4.53
2023-03-06T03:36:14.567Z,4.52
2023-03-06T03:38:40.929Z,4.52
2023-03-06T03:41:07.341Z,4.48
2023-03-06T03:43:33.788Z,4.43
2023-03-06T03:46:00.220Z,4.39
2023-03-06T03:48:26.674Z,4.35
2023-03-06T03:50:53.026Z,4.31
2023-03-06T03:53:19.576Z,4.27
2023-03-06T03:55:49.088Z,4.24
2023-03-06T03:58:15.650Z,4.24
2023-03-06T04:00:41.987Z,4.22
2023-03-06T04:03:08.411Z,4.22
2023-03-06T04:05:34.916Z,4.21
2023-03-06T04:08:03.038Z,4.21
2023-03-06T04:10:29.546Z,4.22
2023-03-06T04:12:56.030Z,4.22
2023-03-06T04:15:22.499Z,4.23
2023-03-06T04:17:48.952Z,4.22
2023-03-06T04:20:15.639Z,4.20
2023-03-06T04:22:42.051Z,4.18
2023-03-06T04:25:08.943Z,4.16
2023-03-06T04:27:35.282Z,4.13
2023-03-06T04:30:03.945Z,4.12
2023-03-06T04:32:30.426Z,4.12
2023-03-06T04:34:56.832Z,4.10
2023-03-06T04:37:25.288Z,4.12
2023-03-06T04:39:52.046Z,4.12
2023-03-06T04:42:18.682Z,4.14
2023-03-06T04:44:45.433Z,4.14
2023-03-06T04:47:12.332Z,4.14
2023-03-06T04:49:38.670Z,4.13
2023-03-06T04:52:05.291Z,4.14
2023-03-06T04:54:32.220Z,4.13
2023-03-06T04:56:58.732Z,4.11
2023-03-06T04:59:25.177Z,4.10
2023-03-06T05:01:52.115Z,4.08
2023-03-06T05:04:19.563Z,4.07
2023-03-06T05:06:45.923Z,4.06
2023-03-06T05:09:12.328Z,4.04
2023-03-06T05:11:38.658Z,4.03
2023-03-06T05:14:05.064Z,4.04
2023-03-06T05:16:31.592Z,4.00
2023-03-06T05:18:57.952Z,4.01
2023-03-06T05:21:24.324Z,4.00
2023-03-06T05:23:50.726Z,4.01
2023-03-06T05:26:17.110Z,4.01
2023-03-06T05:28:43.516Z,4.00
2023-03-06T05:31:09.880Z,4.00
2023-03-06T05:33:36.680Z,4.00
2023-03-06T05:36:03.376Z,4.02
2023-03-06T05:38:29.764Z,4.03
2023-03-06T05:40:56.093Z,4.02
2023-03-06T05:43:22.490Z,4.03
2023-03-06T05:45:50.411Z,4.03
2023-03-06T05:48:16.998Z,4.05
2023-03-06T05:50:43.382Z,4.05
2023-03-06T05:53:10.694Z,4.04
2023-03-06T05:55:37.090Z,4.04
2023-03-06T05:58:03.519Z,4.04
2023-03-06T06:00:29.951Z,4.05
2023-03-06T06:02:56.338Z,4.04
2023-03-06T06:05:22.734Z,4.05
2023-03-06T06:07:49.086Z,4.04
2023-03-06T06:10:15.773Z,4.05
2023-03-06T06:12:42.149Z,4.04
2023-03-06T06:15:08.836Z,4.03
2023-03-06T06:17:35.185Z,4.04
2023-03-06T06:20:01.644Z,4.04
2023-03-06T06:22:29.522Z,4.06
2023-03-06T06:24:55.993Z,4.07
2023-03-06T06:27:22.368Z,4.08
2023-03-06T06:29:51.598Z,4.09
2023-03-06T06:32:18.126Z,4.10
2023-03-06T06:34:44.483Z,4.11
2023-03-06T06:37:10.920Z,4.08
2023-03-06T06:39:37.254Z,4.07
2023-03-06T06:42:28.223Z,4.05
2023-03-06T06:44:50.220Z,4.05
2023-03-06T06:49:54.715Z,4.02
2023-03-06T06:52:21.916Z,4.01
2023-03-06T06:54:48.422Z,4.02
2023-03-06T06:57:15.578Z,4.01
2023-03-06T06:59:42.493Z,4.02
2023-03-06T07:02:12.314Z,4.02
2023-03-06T07:04:44.283Z,4.03
2023-03-06T07:07:15.932Z,4.06
2023-03-06T07:09:42.449Z,4.08
2023-03-06T07:12:09.214Z,4.09
2023-03-06T07:14:36.171Z,4.11
2023-03-06T07:17:02.746Z,4.14
2023-03-06T07:19:29.295Z,4.15
2023-03-06T07:21:55.967Z,4.19
2023-03-06T07:24:22.648Z,4.19
2023-03-06T07:26:49.440Z,4.23
2023-03-06T07:29:15.995Z,4.25
2023-03-06T07:31:42.690Z,4.27
2023-03-06T07:34:13.028Z,4.28
2023-03-06T07:36:40.441Z,4.31
2023-03-06T07:39:10.309Z,4.30
2023-03-06T07:41:37.118Z,4.33
2023-03-06T07:44:03.768Z,4.35
2023-03-06T07:46:30.359Z,4.36
2023-03-06T07:48:58.145Z,4.38
2023-03-06T07:51:24.875Z,4.39
2023-03-06T07:53:51.406Z,4.42
2023-03-06T07:56:17.942Z,4.44
2023-03-06T07:58:46.073Z,4.47
2023-03-06T08:01:20.935Z,4.47
2023-03-06T08:03:50.027Z,4.51
2023-03-06T08:06:27.312Z,4.50
2023-03-06T08:08:55.578Z,4.54
2023-03-06T08:11:24.637Z,4.54
2023-03-06T08:13:53.064Z,4.55
2023-03-06T08:16:25.207Z,4.54
2023-03-06T08:18:52.126Z,4.55
2023-03-06T08:21:23.955Z,4.55
2023-03-06T08:23:51.559Z,4.58
2023-03-06T08:26:24.432Z,4.61
2023-03-06T08:28:52.773Z,4.64
2023-03-06T08:31:36.046Z,4.64
2023-03-06T08:34:09.170Z,4.71
2023-03-06T08:36:36.073Z,4.76
2023-03-06T08:39:03.320Z,4.80
2023-03-06T08:41:30.234Z,4.86
2023-03-06T08:43:57.038Z,4.91
2023-03-06T08:46:26.858Z,4.96
2023-03-06T08:48:53.818Z,5.02
2023-03-06T08:51:22.908Z,5.07
2023-03-06T08:53:50.474Z,5.12
2023-03-06T08:56:19.281Z,5.18
2023-03-06T08:58:46.334Z,5.21
2023-03-06T09:01:28.374Z,5.24
2023-03-06T09:03:57.264Z,5.30
2023-03-06T09:06:24.074Z,5.36
2023-03-06T09:08:52.516Z,5.40
2023-03-06T09:11:21.358Z,5.46
2023-03-06T09:13:48.173Z,5.54
2023-03-06T09:16:14.804Z,5.60
2023-03-06T09:18:41.576Z,5.66
2023-03-06T09:21:09.494Z,5.71
2023-03-06T09:23:37.191Z,5.79
2023-03-06T09:26:03.950Z,5.84
2023-03-06T09:28:30.491Z,5.91
2023-03-06T09:30:57.392Z,5.95
2023-03-06T09:33:24.559Z,6.01
2023-03-06T09:35:54.734Z,6.08
2023-03-06T09:38:24.068Z,6.19
2023-03-06T09:41:05.754Z,6.25
2023-03-06T09:43:37.225Z,6.37
2023-03-06T09:46:23.421Z,6.47
2023-03-06T09:49:18.310Z,6.59
2023-03-06T09:52:10.418Z,6.73
2023-03-06T09:54:44.393Z,6.88
2023-03-06T09:57:22.470Z,7.00
2023-03-06T09:59:54.087Z,7.15
2023-03-06T10:02:47.034Z,7.25
2023-03-06T10:05:23.289Z,7.38
2023-03-06T10:08:25.473Z,7.48
2023-03-06T10:11:02.208Z,7.60
2023-03-06T10:13:48.499Z,7.73
2023-03-06T10:16:25.459Z,7.84
2023-03-06T10:18:53.170Z,7.98
2023-03-06T10:21:44.288Z,8.05
2023-03-06T10:24:28.128Z,8.18
2023-03-06T10:27:13.162Z,8.30
2023-03-06T10:30:01.625Z,8.35
2023-03-06T10:32:46.052Z,8.38
2023-03-06T10:35:22.167Z,8.42
2023-03-06T10:37:49.298Z,8.47
2023-03-06T10:40:21.673Z,8.52
2023-03-06T10:42:49.507Z,8.63
2023-03-06T10:45:18.694Z,8.71
2023-03-06T10:47:46.093Z,8.79
2023-03-06T10:50:28.810Z,8.83
2023-03-06T10:53:05.581Z,8.88
2023-03-06T10:55:34.717Z,8.94
2023-03-06T10:58:25.783Z,8.97
2023-03-06T11:01:20.262Z,9.08
2023-03-06T11:03:47.814Z,9.23
2023-03-06T11:06:30.357Z,9.35
2023-03-06T11:09:15.492Z,9.51
2023-03-06T11:11:41.979Z,9.71
2023-03-06T11:14:20.877Z,9.84
2023-03-06T11:16:53.129Z,9.96
2023-03-06T11:19:27.231Z,10.07
2023-03-06T11:22:01.185Z,10.14
2023-03-06T11:24:37.053Z,10.19
2023-03-06T11:27:22.322Z,10.20
2023-03-06T11:29:51.048Z,10.27
2023-03-06T11:32:23.457Z,10.40
2023-03-06T11:35:28.365Z,10.66
2023-03-06T11:38:06.788Z,11.22
2023-03-06T11:40:56.022Z,11.96
2023-03-06T11:43:35.336Z,12.84
2023-03-06T11:46:15.293Z,13.67
2023-03-06T11:48:53.223Z,14.30
2023-03-06T11:51:26.865Z,14.59
2023-03-06T11:53:55.034Z,14.75
2023-03-06T11:56:31.790Z,14.79
2023-03-06T11:59:38.449Z,14.79
2023-03-06T12:02:20.085Z,14.76
2023-03-06T12:05:05.605Z,14.78
2023-03-06T12:07:56.106Z,14.88
2023-03-06T12:10:34.892Z,15.17
2023-03-06T12:13:27.209Z,15.48
2023-03-06T12:16:06.164Z,15.87
2023-03-06T12:19:03.616Z,16.23
2023-03-06T12:21:41.928Z,16.65
2023-03-06T12:24:30.271Z,17.02
2023-03-06T12:27:05.199Z,17.37
2023-03-06T12:29:37.742Z,17.70
2023-03-06T12:32:40.275Z,18.04
2023-03-06T12:35:36.228Z,18.44
2023-03-06T12:38:11.598Z,18.68
2023-03-06T12:40:50.336Z,18.65
2023-03-06T12:43:44.730Z,18.36
2023-03-06T12:46:17.483Z,17.99
2023-03-06T12:48:48.777Z,17.58
2023-03-06T12:51:20.393Z,17.21
2023-03-06T12:53:48.192Z,16.86
2023-03-06T12:56:17.007Z,16.47
2023-03-06T12:59:02.268Z,16.00
2023-03-06T13:02:06.598Z,15.51
2023-03-06T13:04:45.515Z,15.03
2023-03-06T13:07:45.230Z,14.54
2023-03-06T13:10:30.442Z,14.04
2023-03-06T13:13:01.052Z,13.72
2023-03-06T13:15:27.448Z,13.39
2023-03-06T13:17:53.898Z,13.12
2023-03-06T13:20:26.866Z,12.86
2023-03-06T13:22:53.307Z,12.75
2023-03-06T13:25:19.896Z,12.67
2023-03-06T13:28:00.859Z,12.51
2023-03-06T13:30:36.587Z,12.41
2023-03-06T13:33:32.895Z,12.28
2023-03-06T13:36:00.438Z,12.19
2023-03-06T13:38:35.923Z,12.05
2023-03-06T13:41:20.806Z,11.91
2023-03-06T13:43:48.539Z,11.85
2023-03-06T13:46:26.042Z,11.73
2023-03-06T13:49:07.683Z,11.63
2023-03-06T13:51:42.985Z,11.57
2023-03-06T13:54:16.904Z,11.53
2023-03-06T13:57:00.940Z,11.45
2023-03-06T14:00:08.130Z,11.34
2023-03-06T14:03:06.626Z,11.31
2023-03-06T14:05:42.288Z,11.28
2023-03-06T14:08:27.543Z,11.24
2023-03-06T14:11:03.864Z,11.25
2023-03-06T14:13:45.523Z,11.39
2023-03-06T14:16:21.557Z,11.62
2023-03-06T14:18:51.230Z,11.89
2023-03-06T14:21:32.199Z,12.15
2023-03-06T14:24:01.286Z,12.46
2023-03-06T14:26:32.896Z,12.73
2023-03-06T14:29:00.952Z,12.95
2023-03-06T14:31:41.103Z,13.06
2023-03-06T14:34:15.329Z,13.15
2023-03-06T14:36:41.675Z,13.19
2023-03-06T14:39:13.638Z,13.16
2023-03-06T14:41:40.812Z,13.09
2023-03-06T14:44:27.448Z,12.94
2023-03-06T14:47:40.903Z,12.83
2023-03-06T14:50:32.432Z,12.80
2023-03-06T14:53:19.055Z,12.82
2023-03-06T14:56:06.357Z,12.92
2023-03-06T14:58:44.045Z,13.05
2023-03-06T15:01:13.444Z,13.21
2023-03-06T15:03:48.194Z,13.33
2023-03-06T15:06:22.443Z,13.48
2023-03-06T15:09:02.145Z,13.61
2023-03-06T15:11:56.036Z,13.70
2023-03-06T15:14:31.432Z,13.78
2023-03-06T15:17:17.234Z,13.78
2023-03-06T15:19:46.005Z,13.83
2023-03-06T15:22:27.039Z,13.72
2023-03-06T15:25:06.044Z,13.61
2023-03-06T15:27:32.499Z,13.36
2023-03-06T15:30:23.102Z,13.03
2023-03-06T15:32:49.455Z,12.80
2023-03-06T15:35:36.608Z,12.50
2023-03-06T15:38:22.296Z,12.32
2023-03-06T15:40:59.180Z,12.07
2023-03-06T15:43:26.578Z,11.90
2023-03-06T15:45:58.809Z,11.65
2023-03-06T15:48:25.912Z,11.39
2023-03-06T15:50:52.305Z,11.14
2023-03-06T15:53:20.178Z,10.88
2023-03-06T15:55:46.869Z,10.64
2023-03-06T15:58:17.096Z,10.41
2023-03-06T16:00:44.291Z,10.23
2023-03-06T16:03:11.860Z,10.06
2023-03-06T16:05:38.565Z,9.93
2023-03-06T16:08:05.877Z,9.81
2023-03-06T16:10:43.911Z,9.64
2023-03-06T16:13:16.027Z,9.56
2023-03-06T16:15:48.674Z,9.43
2023-03-06T16:18:15.191Z,9.35
2023-03-06T16:20:41.627Z,9.23
2023-03-06T16:23:10.484Z,9.14
2023-03-06T16:25:38.838Z,9.07
2023-03-06T16:28:07.373Z,9.03
2023-03-06T16:30:35.353Z,8.99
2023-03-06T16:33:02.201Z,8.96
2023-03-06T16:35:28.743Z,8.92
2023-03-06T16:37:55.181Z,8.87
2023-03-06T16:40:27.685Z,8.78
2023-03-06T16:42:56.356Z,8.71
2023-03-06T16:45:23.785Z,8.61
2023-03-06T16:47:50.396Z,8.50
2023-03-06T16:50:29.413Z,8.34
2023-03-06T16:52:57.226Z,8.29
2023-03-06T16:55:25.077Z,8.19
2023-03-06T16:57:51.921Z,8.13
2023-03-06T17:00:19.547Z,8.07
2023-03-06T17:02:48.971Z,8.02
2023-03-06T17:05:15.703Z,7.99
2023-03-06T17:07:42.114Z,7.97
2023-03-06T17:10:16.196Z,7.90
2023-03-06T17:12:43.260Z,7.88
2023-03-06T17:15:10.892Z,7.82
2023-03-06T17:17:37.933Z,7.77
2023-03-06T17:20:07.470Z,7.73
2023-03-06T17:22:35.520Z,7.67
2023-03-06T17:25:04.719Z,7.62
2023-03-06T17:27:31.117Z,7.58
2023-03-06T17:29:58.064Z,7.54
2023-03-06T17:32:25.283Z,7.49
2023-03-06T17:34:51.712Z,7.45
2023-03-06T17:37:18.333Z,7.40
2023-03-06T17:39:44.771Z,7.35
2023-03-06T17:42:11.147Z,7.30
2023-03-06T17:44:38.452Z,7.27
2023-03-06T17:47:05.663Z,7.21
2023-03-06T17:49:32.556Z,7.17
2023-03-06T17:52:03.560Z,7.13
2023-03-06T17:54:30.104Z,7.07
2023-03-06T17:57:00.943Z,7.04
2023-03-06T17:59:28.264Z,7.00
2023-03-06T18:01:58.750Z,6.97
2023-03-06T18:04:25.526Z,6.95
2023-03-06T18:06:51.918Z,6.94
2023-03-06T18:09:18.554Z,6.93
2023-03-06T18:11:45.278Z,6.91
2023-03-06T18:14:11.858Z,6.91
2023-03-06T18:16:38.362Z,6.93
2023-03-06T18:19:04.817Z,6.94
2023-03-06T18:21:31.326Z,6.95
2023-03-06T18:23:57.817Z,6.97
2023-03-06T18:26:26.817Z,6.97
2023-03-06T18:28:55.692Z,6.97
2023-03-06T18:31:27.599Z,6.95
2023-03-06T18:33:56.508Z,6.95
2023-03-06T18:36:25.242Z,6.95
2023-03-06T18:38:52.017Z,6.94
2023-03-06T18:41:20.158Z,6.92
2023-03-06T18:43:54.880Z,6.88
2023-03-06T18:46:22.262Z,6.87
2023-03-06T18:51:30.261Z,6.79
2023-03-06T18:54:00.873Z,6.72
2023-03-06T18:56:27.478Z,6.68
2023-03-06T18:58:54.285Z,6.62
2023-03-06T19:01:22.421Z,6.54
2023-03-06T19:03:49.001Z,6.48
2023-03-06T19:06:17.081Z,6.42
2023-03-06T19:08:43.578Z,6.35
2023-03-06T19:11:15.441Z,6.29
2023-03-06T19:13:42.463Z,6.25
2023-03-06T19:16:09.508Z,6.21
2023-03-06T19:18:36.073Z,6.16
2023-03-06T19:21:14.897Z,6.08
2023-03-06T19:23:42.150Z,6.07
2023-03-06T19:26:08.996Z,6.04
2023-03-06T19:28:37.459Z,5.99
2023-03-06T19:31:25.047Z,5.92
2023-03-06T19:33:53.113Z,5.90
2023-03-06T19:36:23.529Z,5.86
2023-03-06T19:38:56.673Z,5.81
2023-03-06T19:41:23.311Z,5.79
2023-03-06T19:43:52.891Z,5.75
2023-03-06T19:46:20.213Z,5.72
2023-03-06T19:48:47.063Z,5.69
2023-03-06T19:51:14.252Z,5.66
2023-03-06T19:53:41.871Z,5.64
2023-03-06T19:56:15.712Z,5.60
2023-03-06T19:58:42.551Z,5.61
2023-03-06T20:01:15.099Z,5.58
2023-03-06T20:03:42.192Z,5.57
2023-03-06T20:06:14.209Z,5.54
2023-03-06T20:08:41.754Z,5.55
2023-03-06T20:11:22.353Z,5.50
2023-03-06T20:13:49.148Z,5.51
2023-03-06T20:16:16.922Z,5.50
2023-03-06T20:18:43.485Z,5.48
2023-03-06T20:21:10.161Z,5.47
2023-03-06T20:23:36.603Z,5.45
2023-03-06T20:26:05.949Z,5.43
2023-03-06T20:28:32.894Z,5.42
2023-03-06T20:30:59.461Z,5.41
2023-03-06T20:33:26.969Z,5.39
2023-03-06T20:35:54.137Z,5.39
2023-03-06T20:38:20.749Z,5.38
2023-03-06T20:40:47.455Z,5.39
2023-03-06T20:43:13.868Z,5.40
2023-03-06T20:45:40.320Z,5.41
2023-03-06T20:48:06.891Z,5.42
2023-03-06T20:50:33.327Z,5.43
2023-03-06T20:52:59.818Z,5.43
2023-03-06T20:55:26.337Z,5.44
2023-03-06T20:57:52.950Z,5.43
2023-03-06T21:00:20.986Z,5.42
2023-03-06T21:02:47.676Z,5.45
2023-03-06T21:05:14.310Z,5.45
2023-03-06T21:07:40.883Z,5.45
2023-03-06T21:10:08.412Z,5.43
2023-03-06T21:12:34.912Z,5.43
2023-03-06T21:15:01.474Z,5.43
2023-03-06T21:17:28.146Z,5.43
2023-03-06T21:19:54.657Z,5.41
2023-03-06T21:22:21.097Z,5.41
2023-03-06T21:24:47.607Z,5.39
2023-03-06T21:27:14.085Z,5.39
2023-03-06T21:29:40.518Z,5.40
2023-03-06T21:32:07.056Z,5.40
2023-03-06T21:34:33.487Z,5.40
2023-03-06T21:36:59.958Z,5.39
2023-03-06T21:39:26.520Z,5.39
2023-03-06T21:41:53.034Z,5.40
2023-03-06T21:44:19.664Z,5.38
2023-03-06T21:46:46.141Z,5.38
2023-03-06T21:49:12.635Z,5.38
2023-03-06T21:51:39.245Z,5.38
2023-03-06T21:54:06.889Z,5.33
2023-03-06T21:56:33.899Z,5.31
2023-03-06T21:59:00.737Z,5.31
2023-03-06T22:01:28.839Z,5.29
2023-03-06T22:03:55.911Z,5.28
2023-03-06T22:06:25.305Z,5.26
2023-03-06T22:08:52.297Z,5.26
2023-03-06T22:11:20.433Z,5.24
2023-03-06T22:13:50.380Z,5.21
2023-03-06T22:16:17.737Z,5.17
2023-03-06T22:18:46.202Z,5.15
2023-03-06T22:21:14.948Z,5.11
2023-03-06T22:23:41.640Z,5.09
2023-03-06T22:26:11.216Z,5.07
2023-03-06T22:28:38.832Z,5.05
2023-03-06T22:31:12.807Z,5.03
2023-03-06T22:33:39.714Z,5.02
2023-03-06T22:36:08.970Z,5.00
2023-03-06T22:38:37.511Z,4.97
2023-03-06T22:41:05.918Z,4.98
2023-03-06T22:43:33.046Z,4.95
2023-03-06T22:46:04.315Z,4.89
2023-03-06T22:48:31.315Z,4.90
2023-03-06T22:51:25.771Z,4.87
2023-03-06T22:53:52.552Z,4.85
2023-03-06T22:56:21.191Z,4.82
2023-03-06T22:58:48.151Z,4.81
2023-03-06T23:01:17.553Z,4.78
2023-03-06T23:03:46.727Z,4.77
2023-03-06T23:06:19.200Z,4.75
2023-03-06T23:08:50.431Z,4.76
2023-03-06T23:11:19.559Z,4.77
2023-03-06T23:13:46.517Z,4.77
2023-03-06T23:16:13.239Z,4.78
2023-03-06T23:18:40.895Z,4.77
2023-03-06T23:21:13.896Z,4.75
2023-03-06T23:23:40.684Z,4.76
2023-03-06T23:26:08.223Z,4.79
2023-03-06T23:28:35.003Z,4.76
2023-03-06T23:31:10.401Z,4.74
2023-03-06T23:33:38.714Z,4.75
2023-03-06T23:36:07.368Z,4.72
2023-03-06T23:38:34.145Z,4.72
2023-03-06T23:41:21.087Z,4.69
2023-03-06T23:43:48.527Z,4.73
2023-03-06T23:46:15.760Z,4.73
2023-03-06T23:48:43.279Z,4.71
2023-03-06T23:51:14.814Z,4.71
2023-03-06T23:53:41.655Z,4.73
2023-03-06T23:56:08.653Z,4.72
2023-03-06T23:58:35.815Z,4.73
